Latest Weather Observations for Coober Pedy Airport

IDS60801

Issued at 1:01 pm CST Friday 26 May 2017 (issued every 30 minutes, with the page automatically refreshed every 10 minutes)

About weather observations | Map of weather stations | Latest weather observations for SA | Other Formats
Station Details ID: 016090 Name: COOBER PEDY AIRPORT Lat: -29.03 Lon: 134.72 Height: 225.0 m
Data from the previous 72 hours. | See also: Recent months at Coober Pedy Airport
Date/Time
CST
Temp
°C
App
Temp
°C
Dew
Point
°C
Rel
Hum
%
Delta-T
°C
Wind Press
QNH
hPa
Press
MSL
hPa
Rain since
9am
mm
Dir  Spd
km/h
Gust
km/h
Spd
kts
Gust
kts
26/01:00pm 23.0 17.1 4.0 29 9.4 NNE 24 35 13 19 1019.1 1018.7 0.0
26/12:30pm 22.9 17.1 4.4 30 9.2 NNE 24 32 13 17 1019.7 1019.4 0.0
26/12:00pm 21.7 15.9 4.3 32 8.5 NE 24 30 13 16 1020.3 1020.0 0.0
26/11:30am 20.8 14.7 4.8 35 7.9 NNE 26 32 14 17 1021.0 1020.7 0.0
26/11:00am 19.9 13.9 5.2 38 7.3 NE 26 33 14 18 1021.4 1021.1 0.0
26/10:30am 19.0 13.1 5.8 42 6.5 NNE 26 32 14 17 1021.7 1021.4 0.0
26/10:00am 18.1 13.0 6.0 45 6.0 NE 22 28 12 15 1021.9 1021.6 0.0
26/09:30am 16.8 12.0 5.7 48 5.4 NE 20 26 11 14 1022.2 1021.8 0.0
26/09:00am 15.8 11.2 5.7 51 4.9 NE 19 24 10 13 1022.2 1021.8 0.0
26/08:30am 14.1 10.2 5.2 55 4.2 NE 15 19 8 10 1022.2 1021.8 0.0
26/08:00am 11.9 7.9 4.9 62 3.2 NE 15 17 8 9 1021.9 1021.6 0.0
26/07:30am 10.7 6.3 4.6 66 2.8 NE 17 17 9 9 1021.6 1021.3 0.0
26/07:00am 9.2 5.4 3.8 69 2.4 NE 13 15 7 8 1021.4 1021.1 0.0
26/06:30am 9.7 5.9 3.9 67 2.6 ENE 13 13 7 7 1021.1 1020.8 0.0
26/06:00am 10.0 5.8 4.0 66 2.7 NE 15 17 8 9 1021.1 1020.8 0.0
26/05:30am 10.3 6.1 4.0 65 2.8 NE 15 17 8 9 1020.9 1020.6 0.0
26/05:00am 11.4 7.3 4.4 62 3.2 NNE 15 19 8 10 1020.9 1020.6 0.0
26/04:30am 11.5 7.1 4.9 64 3.0 NE 17 19 9 10 1020.5 1020.2 0.0
26/04:00am 11.2 7.1 4.4 63 3.1 NE 15 17 8 9 1020.8 1020.5 0.0
26/03:30am 11.5 7.8 4.3 61 3.3 ENE 13 17 7 9 1021.0 1020.7 0.0
26/03:00am 12.7 8.3 4.7 58 3.7 ENE 17 19 9 10 1021.0 1020.7 0.0
26/02:30am 12.4 8.2 3.9 56 3.9 ENE 15 17 8 9 1021.0 1020.7 0.0
26/02:00am 12.6 8.4 3.8 55 4.0 ENE 15 17 8 9 1021.2 1020.9 0.0
26/01:30am 12.8 8.6 3.7 54 4.1 NE 15 19 8 10 1021.5 1021.2 0.0
26/01:00am 13.1 8.5 3.7 53 4.3 ENE 17 19 9 10 1021.6 1021.3 0.0
26/12:30am 13.9 9.0 3.9 51 4.6 ENE 19 20 10 11 1021.8 1021.5 0.0
26/12:00am 14.2 9.6 3.9 50 4.7 E 17 22 9 12 1021.9 1021.6 0.0
 
Date/Time
CST
Temp
°C
App
Temp
°C
Dew
Point
°C
Rel
Hum
%
Delta-T
°C
Wind Press
QNH
hPa
Press
MSL
hPa
Rain since
9am
mm
Dir  Spd
km/h
Gust
km/h
Spd
kts
Gust
kts
25/11:30pm 14.8 9.9 3.9 48 5.0 ENE 19 20 10 11 1022.1 1021.7 0.0
25/11:00pm 14.5 10.8 4.2 50 4.8 E 13 17 7 9 1022.1 1021.7 0.0
25/10:30pm 14.5 10.6 3.6 48 5.0 E 13 15 7 8 1022.2 1021.8 0.0
25/10:00pm 15.3 11.0 3.5 45 5.5 E 15 17 8 9 1022.2 1021.8 0.0
25/09:30pm 15.4 11.5 3.2 44 5.6 ESE 13 15 7 8 1022.2 1021.8 0.0
25/09:00pm 16.6 12.6 3.0 40 6.3 E 13 17 7 9 1022.1 1021.7 0.0
25/08:30pm 17.0 13.0 3.0 39 6.5 ESE 13 15 7 8 1021.9 1021.6 0.0
25/08:00pm 17.3 12.9 2.9 38 6.7 ESE 15 17 8 9 1021.8 1021.5 0.0
25/07:30pm 17.3 13.2 2.5 37 6.8 E 13 15 7 8 1021.8 1021.5 0.0
25/07:00pm 18.1 14.4 2.4 35 7.3 ESE 11 13 6 7 1021.6 1021.3 0.0
25/06:30pm 19.3 15.2 2.2 32 7.9 ESE 13 15 7 8 1021.3 1021.0 0.0
25/06:00pm 20.4 17.1 2.3 30 8.5 ESE 9 11 5 6 1021.0 1020.7 0.0
25/05:30pm 22.1 19.3 2.2 27 9.4 ESE 6 9 3 5 1020.8 1020.5 0.0
25/05:00pm 22.8 21.2 2.3 26 9.8 CALM 0 7 0 4 1020.7 1020.4 0.0
25/04:30pm 23.1 20.1 2.0 25 10.0 ESE 7 11 4 6 1020.7 1020.4 0.0
25/04:00pm 23.4 20.4 2.3 25 10.1 E 7 13 4 7 1020.6 1020.3 0.0
25/03:30pm 23.7 21.6 2.0 24 10.3 SE 2 11 1 6 1020.6 1020.3 0.0
25/03:00pm 23.5 21.0 1.8 24 10.3 ENE 4 9 2 5 1020.8 1020.5 0.0
25/02:30pm 23.3 20.5 2.2 25 10.1 ESE 6 13 3 7 1020.9 1020.6 0.0
25/02:00pm 23.0 19.6 1.9 25 10.0 NNE 9 13 5 7 1021.2 1020.9 0.0
25/01:30pm 22.6 18.9 2.1 26 9.7 ENE 11 15 6 8 1021.6 1021.3 0.0
25/01:00pm 21.9 17.5 2.6 28 9.2 NE 15 20 8 11 1022.2 1021.8 0.0
25/12:30pm 21.9 17.2 3.1 29 9.0 NNE 17 22 9 12 1022.8 1022.4 0.0
25/12:00pm 21.4 16.4 3.6 31 8.6 NNE 19 24 10 13 1023.3 1023.0 0.0
25/11:30am 21.0 16.0 4.6 34 8.0 NE 20 24 11 13 1023.7 1023.4 0.0
25/11:00am 19.8 14.9 4.3 36 7.5 NNE 19 24 10 13 1023.9 1023.6 0.0
25/10:30am 18.8 13.9 4.9 40 6.8 NNE 20 26 11 14 1024.2 1023.9 0.0
25/10:00am 17.5 12.6 5.1 44 6.0 NNE 20 24 11 13 1024.4 1024.1 0.0
25/09:30am 16.4 12.4 5.1 47 5.4 NNE 15 19 8 10 1024.1 1023.8 0.0
25/09:00am 14.8 11.1 4.5 50 4.8 NNE 13 19 7 10 1023.8 1023.5 0.0
25/08:30am 13.3 9.2 4.2 54 4.2 NNE 15 17 8 9 1023.5 1023.2 0.0
25/08:00am 11.6 7.9 4.3 61 3.3 NNE 13 15 7 8 1023.2 1022.9 0.0
25/07:30am 9.2 5.3 3.2 66 2.6 NE 13 15 7 8 1022.8 1022.4 0.0
25/07:00am 8.9 4.6 3.1 67 2.5 NNE 15 15 8 8 1022.6 1022.2 0.0
25/06:30am 8.7 4.7 2.9 67 2.5 N 13 17 7 9 1022.5 1022.1 0.0
25/06:00am 9.5 5.6 3.3 65 2.7 N 13 17 7 9 1022.2 1021.8 0.0
25/05:30am 9.3 5.7 3.1 65 2.7 N 11 17 6 9 1021.9 1021.6 0.0
25/05:00am 10.1 5.8 3.2 62 3.0 NNE 15 17 8 9 1021.7 1021.4 0.0
25/04:30am 10.6 6.0 3.9 63 3.0 NE 17 17 9 9 1021.8 1021.5 0.0
25/04:00am 10.0 5.3 3.3 63 2.9 NE 17 17 9 9 1021.8 1021.5 0.0
25/03:30am 9.7 5.7 2.8 62 3.0 NE 13 17 7 9 1022.1 1021.7 0.0
25/03:00am 9.7 5.4 3.2 64 2.8 NE 15 17 8 9 1022.3 1021.9 0.0
25/02:30am 10.2 5.9 3.5 63 3.0 NE 15 17 8 9 1022.3 1021.9 0.0
25/02:00am 10.9 6.3 3.7 61 3.2 NE 17 20 9 11 1022.3 1021.9 0.0
25/01:30am 10.5 6.3 3.8 63 3.0 NE 15 17 8 9 1022.4 1022.0 0.0
25/01:00am 10.9 6.6 3.5 60 3.3 NE 15 17 8 9 1022.7 1022.3 0.0
25/12:30am 11.5 7.6 3.5 58 3.6 NE 13 15 7 8 1023.0 1022.7 0.0
25/12:00am 12.3 8.9 4.0 57 3.8 NE 11 13 6 7 1023.2 1022.9 0.0
 
Date/Time
CST
Temp
°C
App
Temp
°C
Dew
Point
°C
Rel
Hum
%
Delta-T
°C
Wind Press
QNH
hPa
Press
MSL
hPa
Rain since
9am
mm
Dir  Spd
km/h
Gust
km/h
Spd
kts
Gust
kts
24/11:30pm 11.6 7.6 2.6 54 3.9 NE 13 15 7 8 1023.3 1023.0 0.0
24/11:00pm 12.5 8.6 3.2 53 4.2 ENE 13 13 7 7 1023.4 1023.1 0.0
24/10:30pm 13.6 10.1 3.7 51 4.5 NE 11 13 6 7 1023.4 1023.1 0.0
24/10:00pm 13.4 9.8 2.9 49 4.7 ENE 11 13 6 7 1023.4 1023.1 0.0
24/09:30pm 13.2 8.7 2.1 47 4.9 ENE 15 15 8 8 1023.4 1023.1 0.0
24/09:00pm 13.9 9.7 1.9 44 5.3 ENE 13 15 7 8 1023.4 1023.1 0.0
24/08:30pm 14.1 10.3 1.7 43 5.4 ENE 11 13 6 7 1023.3 1023.0 0.0
24/08:00pm 14.3 9.7 1.6 42 5.6 ENE 15 15 8 8 1022.9 1022.5 0.0
24/07:30pm 15.0 11.2 1.5 40 5.9 ENE 11 13 6 7 1022.8 1022.4 0.0
24/07:00pm 15.9 11.6 1.2 37 6.5 NE 13 15 7 8 1022.5 1022.1 0.0
24/06:30pm 16.8 13.4 1.7 36 6.8 NE 9 11 5 6 1022.4 1022.0 0.0
24/06:00pm 17.7 14.2 1.2 33 7.4 ENE 9 11 5 6 1022.1 1021.7 0.0
24/05:30pm 19.7 16.3 1.7 30 8.3 NE 9 11 5 6 1021.8 1021.5 0.0
24/05:00pm 20.7 18.2 1.6 28 8.9 ENE 4 7 2 4 1021.7 1021.4 0.0
24/04:30pm 20.8 17.4 1.6 28 8.9 NNE 9 17 5 9 1021.7 1021.4 0.0
24/04:00pm 21.3 17.9 2.1 28 9.0 ENE 9 13 5 7 1021.8 1021.5 0.0
24/03:30pm 21.1 18.3 1.9 28 9.0 ENE 6 13 3 7 1021.9 1021.6 0.0
24/03:00pm 20.9 17.9 1.7 28 8.9 NNE 7 13 4 7 1021.9 1021.6 0.0
24/02:30pm 20.6 17.6 2.0 29 8.7 ENE 7 15 4 8 1022.2 1021.8 0.0
24/02:00pm 20.3 17.3 2.2 30 8.5 SE 7 11 4 6 1022.4 1022.0 0.0
24/01:30pm 20.2 17.3 2.5 31 8.3 NNE 7 20 4 11 1022.7 1022.3 0.0
24/01:00pm 19.5 16.2 2.4 32 8.0 ENE 9 20 5 11 1023.2 1022.9 0.0
24/12:30pm 19.2 16.0 3.0 34 7.6 E 9 17 5 9 1023.6 1023.3 0.0
24/12:00pm 18.9 16.1 2.3 33 7.7 E 6 15 3 8 1024.3 1024.0 0.0
24/11:30am 18.5 15.5 3.9 38 6.9 ENE 9 15 5 8 1024.6 1024.3 0.0
24/11:00am 17.8 14.5 4.7 42 6.3 E 11 19 6 10 1025.0 1024.7 0.0
24/10:30am 17.0 14.1 4.7 44 5.9 ESE 9 13 5 7 1025.1 1024.8 0.0
24/10:00am 16.0 12.6 4.1 45 5.6 E 11 13 6 7 1025.2 1024.9 0.0
24/09:30am 14.9 12.0 4.6 50 4.8 E 9 11 5 6 1025.2 1024.9 0.0
24/09:00am 13.1 10.4 3.5 52 4.3 ESE 7 11 4 6 1025.2 1024.9 0.0
24/08:30am 11.0 8.1 1.3 51 4.1 S 6 7 3 4 1024.9 1024.6 0.0
24/08:00am 8.4 5.1 0.4 57 3.2 SSW 7 9 4 5 1024.5 1024.2 0.0
24/07:30am 6.7 3.4 0.2 63 2.6 SSW 7 9 4 5 1024.3 1024.0 0.0
24/07:00am 6.5 4.5 0.0 63 2.6 CALM 0 0 0 0 1024.0 1023.7 0.0
24/06:30am 6.4 4.4 -0.3 62 2.6 CALM 0 0 0 0 1023.9 1023.6 0.0
24/06:00am 7.0 5.0 -0.2 60 2.8 CALM 0 6 0 3 1023.5 1023.2 0.0
24/05:30am 9.0 3.9 0.5 55 3.4 S 17 19 9 10 1023.0 1022.7 0.0
24/05:00am 8.9 3.4 0.4 55 3.5 S 19 22 10 12 1022.8 1022.4 0.0
24/04:30am 9.1 3.4 0.3 54 3.6 S 20 24 11 13 1022.9 1022.5 0.0
24/04:00am 8.5 3.3 0.0 55 3.4 S 17 19 9 10 1023.1 1022.8 0.0
24/03:30am 9.2 3.9 -0.4 51 3.8 SSW 17 19 9 10 1022.9 1022.5 0.0
24/03:00am 8.8 3.6 0.0 54 3.5 SSW 17 17 9 9 1023.0 1022.7 0.0
24/02:30am 8.7 4.2 -0.3 53 3.6 SSW 13 13 7 7 1023.1 1022.8 0.0
24/02:00am 9.7 5.6 -0.2 50 4.0 S 11 13 6 7 1023.2 1022.9 0.0
24/01:30am 9.9 5.8 0.0 50 4.0 S 11 13 6 7 1023.1 1022.8 0.0
24/01:00am 9.6 5.5 0.0 51 3.9 S 11 13 6 7 1023.1 1022.8 0.0
24/12:30am 9.4 4.2 0.1 52 3.8 S 17 17 9 9 1023.2 1022.9 0.0
24/12:00am 10.1 5.7 0.2 50 4.0 S 13 15 7 8 1023.4 1023.1 0.0
 
Date/Time
CST
Temp
°C
App
Temp
°C
Dew
Point
°C
Rel
Hum
%
Delta-T
°C
Wind Press
QNH
hPa
Press
MSL
hPa
Rain since
9am
mm
Dir  Spd
km/h
Gust
km/h
Spd
kts
Gust
kts
23/11:30pm 10.6 6.2 0.3 49 4.2 SSW 13 15 7 8 1023.5 1023.2 0.0
23/11:00pm 11.0 7.0 0.4 48 4.4 SSW 11 15 6 8 1023.6 1023.3 0.0
23/10:30pm 11.6 7.3 0.7 47 4.6 SW 13 15 7 8 1023.7 1023.4 0.0
23/10:00pm 11.7 7.8 1.1 48 4.5 SW 11 11 6 6 1023.5 1023.2 0.0
23/09:30pm 12.3 8.3 0.7 45 4.9 SW 11 13 6 7 1023.3 1023.0 0.0
23/09:00pm 13.0 8.7 1.0 44 5.1 SSW 13 13 7 7 1023.0 1022.7 0.0
23/08:30pm 13.6 9.3 0.9 42 5.4 SSW 13 15 7 8 1022.7 1022.3 0.0
23/08:00pm 14.8 10.1 0.6 38 6.1 SSW 15 17 8 9 1022.4 1022.0 0.0
23/07:30pm 15.6 10.9 1.0 37 6.4 SSW 15 17 8 9 1022.1 1021.7 0.0
23/07:00pm 16.7 11.7 1.2 35 6.9 SSW 17 19 9 10 1021.7 1021.4 0.0
23/06:30pm 17.7 12.4 1.7 34 7.2 SW 19 22 10 12 1021.2 1020.9 0.0
23/06:00pm 18.8 13.6 3.4 36 7.3 WSW 20 26 11 14 1020.7 1020.4 0.0
23/05:30pm 19.9 13.9 3.2 33 7.9 WSW 24 32 13 17 1020.4 1020.1 0.0
23/05:00pm 20.7 14.3 3.4 32 8.3 WSW 26 41 14 22 1020.1 1019.8 0.0
23/04:30pm 21.2 14.9 3.9 32 8.4 WSW 26 33 14 18 1019.8 1019.5 0.0
23/04:00pm 21.4 15.5 4.0 32 8.5 WSW 24 35 13 19 1019.8 1019.5 0.0
23/03:30pm 21.6 15.5 4.7 33 8.4 WSW 26 37 14 20 1019.8 1019.5 0.0
23/03:00pm 21.7 15.9 4.3 32 8.5 WSW 24 35 13 19 1019.6 1019.3 0.0
23/02:30pm 21.3 15.4 4.0 32 8.4 WSW 24 35 13 19 1019.8 1019.5 0.0
23/02:00pm 21.4 16.3 4.0 32 8.5 WSW 20 33 11 18 1019.8 1019.5 0.0
23/01:30pm 20.4 14.5 4.0 34 7.9 WSW 24 32 13 17 1020.3 1020.0 0.0

Other Formats:

Comma delimited format used in spreadsheet applications
http://www.bom.gov.au/fwo/IDS60801/IDS60801.95458.axf

JavaScript Object Notation format (JSON) in row-major order
http://www.bom.gov.au/fwo/IDS60801/IDS60801.95458.json